Time;durP1;ratioP1;P1;durP2;ratioP2;P2;SDS_P1;SDS_P2;PMS_P1;PMS_P2;Temp;Humidity;BMP_temperature;BMP_pressure;BME280_temperature;BME280_humidity;BME280_pressure;Samples;Min_cycle;Max_cycle;Signal;HPM_P1;HPM_P2
2023/07/26 00:02:18;;;;;;;5.50;3.88;;;;;;;12.95;84.05;101084.34;6187877;23;20020;-69
2023/07/26 00:04:44;;;;;;;5.97;3.67;;;;;;;12.97;83.58;101087.84;6187606;23;20013;-68
2023/07/26 00:07:10;;;;;;;4.07;3.47;;;;;;;12.84;84.03;101075.78;6187707;23;20075;-68
2023/07/26 00:09:35;;;;;;;5.50;3.55;;;;;;;12.88;83.32;101066.94;6187515;23;20005;-69
2023/07/26 00:12:00;;;;;;;6.47;3.55;;;;;;;12.94;83.04;101076.50;6187214;23;20009;-68
2023/07/26 00:14:26;;;;;;;5.72;3.97;;;;;;;12.96;84.18;101074.72;6212980;23;20343;-69
2023/07/26 00:16:51;;;;;;;4.55;3.72;;;;;;;12.97;83.83;101079.06;6187867;23;20095;-69
2023/07/26 00:19:19;;;;;;;4.38;3.67;;;;;;;12.95;84.38;101078.22;6187481;23;20009;-69
2023/07/26 00:21:46;;;;;;;4.05;3.42;;;;;;;13.06;82.24;101088.53;6187676;23;20319;-68
2023/07/26 00:24:11;;;;;;;7.10;3.78;;;;;;;13.02;82.25;101079.84;6187157;23;20008;-68
2023/07/26 00:26:37;;;;;;;5.78;3.85;;;;;;;13.05;83.41;101085.06;6186326;23;20099;-69
2023/07/26 00:29:02;;;;;;;6.70;3.60;;;;;;;12.98;82.58;101080.81;6187323;23;20008;-68
2023/07/26 00:31:28;;;;;;;5.38;3.30;;;;;;;12.95;82.27;101068.56;6186945;23;20355;-68
2023/07/26 00:33:53;;;;;;;6.65;3.83;;;;;;;13.06;81.80;101076.28;6187190;23;20158;-69
2023/07/26 00:36:18;;;;;;;5.40;3.28;;;;;;;13.04;82.13;101075.41;6187533;23;20009;-69
2023/07/26 00:38:44;;;;;;;4.32;3.70;;;;;;;13.00;82.86;101072.00;6187551;23;20399;-68
2023/07/26 00:41:09;;;;;;;4.22;3.40;;;;;;;12.95;83.05;101070.34;6211436;23;20035;-69
2023/07/26 00:43:35;;;;;;;5.00;3.65;;;;;;;13.00;82.55;101071.09;6181067;23;20406;-68
2023/07/26 00:46:01;;;;;;;3.85;3.45;;;;;;;12.90;82.85;101064.28;6183641;23;20328;-68
2023/07/26 00:48:26;;;;;;;6.78;3.50;;;;;;;12.86;83.47;101067.84;6187663;23;20059;-68
2023/07/26 00:50:55;;;;;;;4.15;3.53;;;;;;;12.88;84.26;101071.34;6187251;23;20009;-69
2023/07/26 00:53:21;;;;;;;5.65;4.18;;;;;;;12.82;83.98;101078.44;6187683;23;20383;-69
2023/07/26 00:55:48;;;;;;;6.10;3.60;;;;;;;12.77;83.77;101067.16;6187283;23;20004;-70
2023/07/26 00:58:14;;;;;;;5.10;3.80;;;;;;;12.67;84.97;101062.94;6162173;23;20021;-70
2023/07/26 01:00:43;;;;;;;3.97;3.28;;;;;;;12.59;84.51;101067.47;6161531;23;20039;-70
2023/07/26 01:03:08;;;;;;;4.70;3.80;;;;;;;12.53;84.31;101060.53;6187753;23;20001;-68
2023/07/26 01:05:42;;;;;;;6.07;3.80;;;;;;;12.42;84.51;101060.69;6212039;23;20035;-69
2023/07/26 01:08:24;;;;;;;5.95;3.97;;;;;;;12.46;85.05;101067.66;6212654;23;20311;-70
2023/07/26 01:11:08;;;;;;;5.65;3.53;;;;;;;12.56;84.58;101064.88;6187411;23;20000;-70
2023/07/26 01:13:45;;;;;;;6.55;4.15;;;;;;;12.52;84.47;101065.81;6186993;23;20031;-70
2023/07/26 01:16:12;;;;;;;5.68;3.72;;;;;;;12.45;85.83;101065.03;6212605;23;20422;-70
2023/07/26 01:18:38;;;;;;;5.88;3.83;;;;;;;12.53;85.63;101070.16;6186904;23;20009;-70
2023/07/26 01:21:06;;;;;;;4.45;4.03;;;;;;;12.52;84.61;101071.06;6187970;23;20024;-70
2023/07/26 01:23:31;;;;;;;5.97;3.83;;;;;;;12.43;84.91;101059.81;6187479;23;20013;-70
2023/07/26 01:25:57;;;;;;;4.68;4.05;;;;;;;12.47;84.43;101066.75;6187107;23;20055;-70
2023/07/26 01:28:22;;;;;;;6.78;4.30;;;;;;;12.44;85.13;101069.44;6162398;23;20079;-70
2023/07/26 01:30:49;;;;;;;4.72;4.00;;;;;;;12.38;85.76;101069.50;6185789;23;20031;-69
2023/07/26 01:33:17;;;;;;;5.45;3.55;;;;;;;12.41;86.12;101069.50;6214138;23;20005;-68
2023/07/26 01:35:44;;;;;;;7.45;3.67;;;;;;;12.30;87.11;101063.53;6187032;23;20000;-68
2023/07/26 01:38:13;;;;;;;5.10;4.15;;;;;;;12.25;87.31;101074.09;6187285;23;20362;-69
2023/07/26 01:40:39;;;;;;;5.88;4.18;;;;;;;12.30;87.19;101068.78;6162303;23;20089;-68
2023/07/26 01:43:05;;;;;;;6.15;3.72;;;;;;;12.25;87.04;101067.97;6212701;23;20334;-68
2023/07/26 01:45:30;;;;;;;4.75;4.20;;;;;;;12.25;87.69;101063.56;6185447;23;20004;-68
2023/07/26 01:47:56;;;;;;;6.82;4.35;;;;;;;12.39;87.73;101068.63;6187277;23;20460;-68
2023/07/26 01:50:21;;;;;;;5.00;4.50;;;;;;;12.40;87.46;101072.16;6187081;23;20020;-68
2023/07/26 01:52:47;;;;;;;7.13;4.78;;;;;;;12.37;87.70;101065.19;6212422;23;20083;-68
2023/07/26 01:55:12;;;;;;;6.38;4.55;;;;;;;12.44;87.36;101069.44;6187023;23;20084;-68
2023/07/26 01:57:38;;;;;;;6.40;4.22;;;;;;;12.26;88.94;101067.94;6162379;23;20098;-67
2023/07/26 02:00:04;;;;;;;6.38;4.60;;;;;;;12.28;88.69;101065.28;6186060;23;20107;-67
2023/07/26 02:02:30;;;;;;;5.07;4.35;;;;;;;12.31;88.65;101067.88;6162287;23;20008;-67
2023/07/26 02:04:55;;;;;;;7.85;4.80;;;;;;;12.29;88.13;101070.53;6186647;23;20015;-67
2023/07/26 02:07:21;;;;;;;5.38;4.75;;;;;;;12.33;89.24;101071.38;6187271;23;20015;-67
2023/07/26 02:09:46;;;;;;;6.47;4.18;;;;;;;12.45;89.46;101076.41;6212192;23;20013;-68
2023/07/26 02:12:14;;;;;;;6.25;4.90;;;;;;;12.48;89.39;101062.34;6187404;23;20016;-68
2023/07/26 02:14:40;;;;;;;5.10;4.60;;;;;;;12.47;90.38;101069.38;6185905;23;20024;-69
2023/07/26 02:17:06;;;;;;;9.95;5.47;;;;;;;12.38;89.90;101069.50;6187173;23;20007;-69
2023/07/26 02:19:31;;;;;;;7.55;5.30;;;;;;;12.44;89.57;101066.81;6161584;23;20005;-67
2023/07/26 02:21:56;;;;;;;6.20;5.22;;;;;;;12.41;88.68;101056.34;6187050;23;20012;-68
2023/07/26 02:24:22;;;;;;;5.97;5.38;;;;;;;12.44;88.06;101056.28;6186585;23;20021;-68
2023/07/26 02:26:47;;;;;;;9.07;5.65;;;;;;;12.45;87.61;101068.53;6212037;23;20047;-67
2023/07/26 02:29:13;;;;;;;8.63;5.97;;;;;;;12.37;87.75;101064.28;6185762;23;20099;-68
2023/07/26 02:31:38;;;;;;;6.80;5.90;;;;;;;12.43;87.02;101065.06;6186843;23;20044;-67
2023/07/26 02:34:04;;;;;;;7.38;5.32;;;;;;;12.21;87.35;101054.03;6186189;23;20028;-67
2023/07/26 02:36:29;;;;;;;6.88;5.65;;;;;;;12.24;87.55;101050.47;6187226;23;20005;-67
2023/07/26 02:38:55;;;;;;;7.00;5.68;;;;;;;12.15;87.79;101053.25;6161779;23;20013;-67
2023/07/26 02:41:20;;;;;;;6.45;5.72;;;;;;;12.10;88.16;101061.19;6188513;23;20442;-68
2023/07/26 02:43:45;;;;;;;8.00;5.47;;;;;;;12.21;87.49;101056.66;6187504;23;20086;-68
2023/07/26 02:46:11;;;;;;;6.72;5.80;;;;;;;12.20;87.20;101051.44;6188830;23;20104;-67
2023/07/26 02:48:36;;;;;;;10.25;6.10;;;;;;;12.08;86.74;101052.47;6188649;23;20379;-67
2023/07/26 02:51:02;;;;;;;6.22;5.63;;;;;;;12.18;86.76;101053.19;6188424;23;20031;-68
2023/07/26 02:53:27;;;;;;;6.78;5.85;;;;;;;12.10;87.49;101056.81;6188644;23;20015;-68
2023/07/26 02:55:53;;;;;;;6.57;5.82;;;;;;;11.99;88.03;101050.84;6213617;23;20495;-67
2023/07/26 02:58:18;;;;;;;7.05;5.88;;;;;;;11.79;87.52;101046.72;6188699;23;20185;-67
2023/07/26 03:00:44;;;;;;;7.25;5.50;;;;;;;11.73;88.22;101049.41;6187545;23;20012;-68
2023/07/26 03:03:12;;;;;;;7.45;6.10;;;;;;;11.69;88.91;101054.72;6188736;23;20008;-67
2023/07/26 03:05:37;;;;;;;6.75;5.82;;;;;;;11.71;88.61;101053.81;6163869;23;20084;-67
2023/07/26 03:08:04;;;;;;;6.63;5.82;;;;;;;11.63;89.01;101060.91;6215061;23;20035;-67
2023/07/26 03:10:31;;;;;;;8.50;6.22;;;;;;;11.66;89.53;101055.63;6213567;23;20043;-67
2023/07/26 03:12:57;;;;;;;6.10;5.50;;;;;;;11.71;89.84;101064.31;6188617;23;20008;-68
2023/07/26 03:15:22;;;;;;;6.60;5.63;;;;;;;11.80;89.25;101068.56;6187156;23;20001;-68
2023/07/26 03:17:48;;;;;;;6.35;5.75;;;;;;;11.79;89.23;101072.09;6188406;23;20008;-68
2023/07/26 03:20:13;;;;;;;9.25;6.22;;;;;;;11.86;88.93;101079.00;6188362;23;20020;-68
2023/07/26 03:22:39;;;;;;;8.13;5.90;;;;;;;11.91;88.66;101073.66;6163787;23;20099;-68
2023/07/26 03:25:05;;;;;;;6.70;5.63;;;;;;;11.92;88.97;101075.41;6187331;23;20009;-68
2023/07/26 03:27:30;;;;;;;6.95;5.90;;;;;;;11.91;89.40;101084.16;6188367;23;20036;-67
2023/07/26 03:29:55;;;;;;;7.57;5.97;;;;;;;11.93;89.63;101074.53;6162542;23;20025;-67
2023/07/26 03:32:21;;;;;;;6.63;5.53;;;;;;;11.96;89.43;101071.91;6188062;23;20036;-67
2023/07/26 03:34:47;;;;;;;8.15;5.93;;;;;;;11.96;89.28;101066.66;6212796;23;20015;-67
2023/07/26 03:37:12;;;;;;;6.53;5.93;;;;;;;11.97;89.58;101073.63;6188713;23;20039;-68
2023/07/26 03:39:38;;;;;;;7.60;6.00;;;;;;;11.93;89.76;101070.16;6187702;23;20032;-67
2023/07/26 03:42:03;;;;;;;7.43;6.20;;;;;;;11.92;89.84;101057.91;6188612;23;20012;-67
2023/07/26 03:44:29;;;;;;;7.75;5.93;;;;;;;12.00;89.78;101070.09;6187275;23;20525;-67
2023/07/26 03:46:54;;;;;;;6.57;5.63;;;;;;;11.93;90.02;101066.66;6188877;23;20009;-67
2023/07/26 03:49:19;;;;;;;6.47;5.57;;;;;;;11.95;89.99;101067.53;6188075;23;20016;-67
2023/07/26 03:51:45;;;;;;;7.03;5.47;;;;;;;11.95;89.93;101064.91;6163627;23;20066;-67
2023/07/26 03:54:10;;;;;;;8.50;5.93;;;;;;;11.88;89.50;101063.22;6188188;23;20012;-67
2023/07/26 03:56:36;;;;;;;6.43;5.68;;;;;;;11.81;90.07;101067.69;6187006;23;20039;-67
2023/07/26 03:59:02;;;;;;;7.05;5.30;;;;;;;11.78;90.48;101070.38;6211856;23;20008;-67
2023/07/26 04:01:27;;;;;;;5.85;5.20;;;;;;;11.74;90.31;101076.53;6186326;23;20043;-67
2023/07/26 04:03:53;;;;;;;7.80;5.45;;;;;;;11.70;90.06;101078.31;6163202;23;20364;-67
2023/07/26 04:06:18;;;;;;;6.28;5.10;;;;;;;11.73;90.87;101083.53;6163384;23;20050;-68
2023/07/26 04:08:43;;;;;;;6.10;5.50;;;;;;;11.72;90.46;101081.81;6212706;23;20435;-68
2023/07/26 04:11:11;;;;;;;6.15;5.00;;;;;;;11.67;91.02;101078.38;6187602;23;20099;-67
2023/07/26 04:13:36;;;;;;;8.55;5.70;;;;;;;11.57;90.97;101076.75;6187927;23;20005;-67
2023/07/26 04:18:54;;;;;;;6.88;5.72;;;;;;;11.54;91.24;101068.91;6231493;22;20055;-67
2023/07/26 04:21:20;;;;;;;6.85;5.72;;;;;;;11.66;90.93;101081.88;6200697;22;20015;-67
2023/07/26 04:29:41;;;;;;;7.55;5.93;;;;;;;11.93;89.86;101077.16;6257799;22;20027;-67
2023/07/26 04:37:17;;;;;;;6.53;5.55;;;;;;;13.28;85.01;101075.88;6245007;22;20024;-68
2023/07/26 05:05:37;;;;;;;5.07;4.10;;;;;;;16.66;71.46;101084.78;6246424;22;20019;-67
2023/07/26 05:10:55;;;;;;;4.85;3.72;;;;;;;17.14;67.50;101086.69;6250443;22;20484;-66
2023/07/26 05:49:19;;;;;;;5.72;3.72;;;;;;;22.90;50.45;101083.66;6243450;23;20082;-68
2023/07/26 05:51:44;;;;;;;5.90;4.18;;;;;;;22.30;51.26;101079.97;6166586;23;20020;-68
2023/07/26 05:54:10;;;;;;;6.00;3.83;;;;;;;21.65;52.92;101082.72;6166720;22;20090;-69
2023/07/26 05:56:35;;;;;;;6.13;4.25;;;;;;;22.00;54.07;101081.72;6191380;23;20000;-68
2023/07/26 05:59:01;;;;;;;7.22;4.15;;;;;;;22.74;52.08;101093.50;6189574;23;20009;-68
2023/07/26 06:01:27;;;;;;;6.22;3.97;;;;;;;23.72;49.61;101097.41;6190964;23;20012;-68
2023/07/26 06:03:53;;;;;;;5.97;4.20;;;;;;;24.61;47.61;101096.16;6216178;23;20008;-68
2023/07/26 06:06:19;;;;;;;9.30;4.15;;;;;;;24.48;45.83;101098.78;6191199;23;20146;-68
2023/07/26 06:08:44;;;;;;;5.82;3.78;;;;;;;22.96;50.08;101098.47;6242645;23;20142;-68
2023/07/26 06:11:10;;;;;;;6.78;4.10;;;;;;;21.59;52.90;101109.69;6191251;23;20031;-68
2023/07/26 06:13:35;;;;;;;7.22;4.78;;;;;;;20.56;57.01;101108.69;6190417;23;20065;-68
2023/07/26 06:16:01;;;;;;;7.03;4.80;;;;;;;19.48;60.48;101110.16;6190478;23;20011;-68
2023/07/26 06:18:26;;;;;;;7.82;4.57;;;;;;;19.00;61.60;101112.25;6191049;23;20009;-68
2023/07/26 06:20:52;;;;;;;7.68;5.07;;;;;;;18.62;63.74;101112.03;6190689;23;20345;-66
2023/07/26 06:23:17;;;;;;;7.90;5.65;;;;;;;18.11;65.55;101117.56;6215803;23;20177;-66
2023/07/26 06:25:43;;;;;;;10.50;6.07;;;;;;;17.76;67.52;101116.25;6190921;23;20018;-66
2023/07/26 06:28:08;;;;;;;9.52;6.20;;;;;;;17.59;68.87;101124.81;6190793;23;20060;-67
2023/07/26 06:30:34;;;;;;;8.85;6.45;;;;;;;17.47;68.88;101128.78;6190084;23;20016;-66
2023/07/26 06:32:59;;;;;;;10.85;6.75;;;;;;;17.46;69.88;101127.06;6191564;23;20096;-66
2023/07/26 06:35:25;;;;;;;11.23;6.55;;;;;;;17.39;69.62;101134.34;6191130;23;20035;-66
2023/07/26 06:37:50;;;;;;;8.70;6.82;;;;;;;17.11;70.73;101137.97;6191490;23;20015;-66
2023/07/26 06:40:15;;;;;;;10.40;7.53;;;;;;;16.79;72.86;101144.31;6190304;23;20018;-66
2023/07/26 06:42:41;;;;;;;10.15;7.35;;;;;;;16.53;72.70;101145.16;6190995;23;20015;-66
2023/07/26 06:45:07;;;;;;;13.52;7.57;;;;;;;16.38;74.07;101144.72;6189631;23;20008;-66
2023/07/26 06:47:32;;;;;;;11.60;7.60;;;;;;;16.35;74.91;101143.94;6190977;23;20536;-66
2023/07/26 06:49:59;;;;;;;8.90;8.00;;;;;;;16.16;76.16;101154.22;6216206;23;20024;-66
2023/07/26 06:52:29;;;;;;;10.40;7.53;;;;;;;15.96;78.13;101153.06;6191518;23;20023;-66
2023/07/26 06:54:57;;;;;;;11.13;7.90;;;;;;;15.98;78.47;101151.22;6190632;23;20012;-66
2023/07/26 06:57:22;;;;;;;11.40;8.20;;;;;;;15.85;78.39;101153.34;6191620;23;20015;-66
2023/07/26 06:59:48;;;;;;;11.70;8.68;;;;;;;15.83;78.89;101157.81;6189404;23;20042;-66
2023/07/26 07:02:13;;;;;;;11.27;8.80;;;;;;;15.74;79.48;101158.88;6190975;23;20009;-66
2023/07/26 07:04:39;;;;;;;10.35;9.15;;;;;;;15.59;81.40;101154.06;6190676;23;20150;-66
2023/07/26 07:07:04;;;;;;;13.45;9.10;;;;;;;15.52;81.39;101158.63;6190808;23;20017;-66
2023/07/26 07:09:30;;;;;;;10.80;9.57;;;;;;;15.42;82.51;101162.44;6215868;23;20089;-66
2023/07/26 07:11:55;;;;;;;13.32;10.02;;;;;;;15.40;83.77;101158.94;6191265;23;20008;-66
2023/07/26 07:14:21;;;;;;;15.23;9.80;;;;;;;15.41;84.11;101168.63;6189276;22;20008;-66
2023/07/26 07:16:46;;;;;;;12.02;9.20;;;;;;;15.54;83.88;101171.78;6191050;23;20039;-66
2023/07/26 07:19:12;;;;;;;10.95;9.85;;;;;;;15.53;84.18;101175.34;6165608;23;20055;-68
2023/07/26 07:21:37;;;;;;;10.55;9.45;;;;;;;15.50;84.45;101186.88;6215414;23;20011;-68
2023/07/26 07:24:04;;;;;;;13.38;10.18;;;;;;;15.57;84.74;101188.44;6189972;23;20395;-68
2023/07/26 07:26:30;;;;;;;11.73;9.93;;;;;;;15.42;84.22;101192.34;6165317;23;20008;-68
2023/07/26 07:28:55;;;;;;;14.05;10.77;;;;;;;15.28;84.79;101193.63;6216323;23;20453;-68
2023/07/26 07:31:21;;;;;;;13.60;10.43;;;;;;;15.19;85.24;101200.00;6192364;23;20028;-68
2023/07/26 07:33:47;;;;;;;13.13;10.23;;;;;;;15.10;85.92;101200.22;6193334;23;20011;-68
2023/07/26 07:36:17;;;;;;;12.65;10.77;;;;;;;15.03;87.03;101196.88;6217562;23;20000;-67
2023/07/26 07:38:44;;;;;;;13.30;10.85;;;;;;;14.87;86.84;101181.41;6193928;23;20016;-67
2023/07/26 07:41:09;;;;;;;11.95;10.63;;;;;;;14.79;87.88;101180.72;6218756;23;20004;-68
2023/07/26 07:43:35;;;;;;;13.93;11.45;;;;;;;14.67;89.46;101186.31;6193055;23;20008;-68
2023/07/26 07:46:00;;;;;;;13.95;11.68;;;;;;;14.68;90.70;101185.38;6192797;23;20095;-68
2023/07/26 07:48:26;;;;;;;13.43;10.55;;;;;;;14.71;90.50;101185.31;6168135;23;20024;-68
2023/07/26 07:50:55;;;;;;;13.45;10.95;;;;;;;14.68;91.15;101185.38;6168644;23;20019;-68
2023/07/26 07:53:21;;;;;;;16.13;12.65;;;;;;;14.77;92.36;101189.56;6218450;23;20334;-68
2023/07/26 07:55:46;;;;;;;13.15;11.07;;;;;;;14.74;90.18;101185.25;6168589;23;20008;-68
2023/07/26 07:58:12;;;;;;;15.07;10.90;;;;;;;14.80;89.21;101186.88;6168854;23;20384;-68
2023/07/26 08:00:37;;;;;;;14.23;10.98;;;;;;;14.81;87.97;101183.31;6192257;23;20046;-68
2023/07/26 08:03:03;;;;;;;14.25;9.60;;;;;;;14.89;88.89;101187.50;6193038;23;20008;-68
2023/07/26 08:05:29;;;;;;;11.77;10.57;;;;;;;15.02;87.64;101180.16;6217455;23;20350;-68
2023/07/26 08:07:54;;;;;;;14.32;12.80;;;;;;;15.08;88.97;101179.13;6193132;23;20008;-68
2023/07/26 08:10:20;;;;;;;13.70;12.30;;;;;;;15.45;88.55;101183.47;6218145;23;20330;-68
2023/07/26 08:12:46;;;;;;;14.57;13.07;;;;;;;15.73;88.65;101188.00;6193332;23;20019;-70
2023/07/26 08:15:12;;;;;;;13.27;11.98;;;;;;;15.82;88.98;101187.78;6167090;23;20346;-70
2023/07/26 08:17:38;;;;;;;14.68;13.05;;;;;;;16.25;87.84;101186.53;6167896;23;20036;-70
2023/07/26 08:20:04;;;;;;;14.95;13.23;;;;;;;16.51;88.79;101184.88;6192782;23;20016;-70
2023/07/26 08:22:32;;;;;;;16.33;12.68;;;;;;;16.73;87.68;101186.84;6218219;23;20071;-70
2023/07/26 08:24:58;;;;;;;14.63;11.70;;;;;;;16.91;85.97;101186.28;6192490;23;20086;-70
2023/07/26 08:27:23;;;;;;;13.88;11.07;;;;;;;17.07;84.92;101193.75;6167868;23;20111;-70
2023/07/26 08:29:49;;;;;;;13.20;11.38;;;;;;;17.23;85.21;101194.94;6191137;23;20081;-70
2023/07/26 08:32:15;;;;;;;12.63;10.88;;;;;;;17.31;83.24;101198.19;6193293;23;20154;-71
2023/07/26 08:34:40;;;;;;;14.13;11.25;;;;;;;17.41;83.02;101197.88;6192995;23;20158;-70
2023/07/26 08:37:06;;;;;;;12.35;10.38;;;;;;;17.44;81.19;101195.09;6168367;23;20008;-70
2023/07/26 08:39:31;;;;;;;17.10;10.55;;;;;;;17.70;83.50;101193.31;6192407;23;20074;-71
2023/07/26 08:41:58;;;;;;;11.35;9.13;;;;;;;17.78;79.48;101192.13;6192903;23;20008;-70
2023/07/26 08:44:24;;;;;;;11.32;9.52;;;;;;;17.77;79.04;101197.47;6191124;22;20404;-71
2023/07/26 08:46:52;;;;;;;11.38;9.48;;;;;;;17.92;79.04;101191.66;6193058;23;20063;-71
2023/07/26 08:49:18;;;;;;;11.15;9.88;;;;;;;18.06;79.69;101192.91;6217284;23;20012;-71
2023/07/26 08:51:45;;;;;;;13.95;10.68;;;;;;;18.20;80.49;101181.81;6217985;23;20065;-71
2023/07/26 08:54:11;;;;;;;11.07;9.88;;;;;;;18.26;80.26;101185.09;6167854;22;20004;-71
2023/07/26 08:56:37;;;;;;;15.23;10.15;;;;;;;18.29;78.43;101187.63;6192373;23;20111;-71
2023/07/26 08:59:03;;;;;;;10.85;9.35;;;;;;;18.18;75.88;101184.50;6216662;23;20015;-71
2023/07/26 09:01:29;;;;;;;14.60;10.48;;;;;;;18.46;77.55;101178.13;6168012;23;20012;-71
2023/07/26 09:03:55;;;;;;;13.35;9.25;;;;;;;18.50;76.88;101177.97;6217387;23;20011;-71
2023/07/26 09:06:20;;;;;;;12.75;9.40;;;;;;;18.61;77.24;101174.03;6167891;23;20030;-71
2023/07/26 09:08:46;;;;;;;11.13;8.88;;;;;;;18.63;77.44;101178.34;6192402;23;20008;-70
2023/07/26 09:11:30;;;;;;;10.50;8.02;;;;;;;18.74;75.81;101171.72;6192547;23;20008;-70
2023/07/26 09:14:00;;;;;;;11.25;8.73;;;;;;;18.69;75.00;101177.19;6191595;23;20019;-71
2023/07/26 09:16:30;;;;;;;10.60;8.23;;;;;;;18.87;73.89;101165.00;6217626;23;20000;-70
2023/07/26 09:19:01;;;;;;;8.95;8.05;;;;;;;18.94;74.39;101171.81;6192700;23;20406;-70
2023/07/26 09:21:31;;;;;;;8.35;7.43;;;;;;;18.92;71.98;101172.78;6217828;23;20004;-70
2023/07/26 09:23:58;;;;;;;9.25;6.93;;;;;;;18.80;71.28;101169.66;6216977;23;20173;-70
2023/07/26 09:26:41;;;;;;;8.55;5.53;;;;;;;18.81;69.44;101162.59;6217607;23;20004;-70
2023/07/26 09:29:12;;;;;;;7.38;4.47;;;;;;;18.79;67.75;101161.78;6216453;23;20007;-70
2023/07/26 09:31:41;;;;;;;6.13;5.43;;;;;;;18.91;65.62;101161.31;6192534;23;20038;-70
2023/07/26 09:34:08;;;;;;;8.50;6.63;;;;;;;18.96;67.63;101159.31;6168543;22;20035;-70
2023/07/26 09:36:48;;;;;;;7.75;6.95;;;;;;;18.86;70.24;101158.84;6218217;23;20004;-70
2023/07/26 09:39:14;;;;;;;8.75;7.45;;;;;;;19.00;70.18;101150.28;6216818;23;20011;-70
2023/07/26 09:41:41;;;;;;;9.07;6.82;;;;;;;18.89;70.22;101152.53;6192864;23;20091;-70
2023/07/26 09:44:07;;;;;;;8.02;6.13;;;;;;;18.99;68.58;101143.28;6191309;22;20056;-70
2023/07/26 09:46:46;;;;;;;8.65;5.93;;;;;;;19.16;69.99;101147.84;6192131;23;20012;-70
2023/07/26 09:49:12;;;;;;;7.32;5.07;;;;;;;18.98;66.81;101157.47;6216778;23;20106;-69
2023/07/26 09:51:39;;;;;;;6.25;5.13;;;;;;;18.79;66.06;101156.47;6192147;23;20378;-69
2023/07/26 09:54:05;;;;;;;9.15;5.22;;;;;;;18.69;66.50;101164.81;6192832;22;20090;-69
2023/07/26 09:56:34;;;;;;;8.25;5.78;;;;;;;18.47;66.27;101166.59;6167825;23;20402;-69
2023/07/26 09:59:01;;;;;;;8.50;5.72;;;;;;;18.28;66.94;101169.97;6216817;23;20008;-68
2023/07/26 10:01:27;;;;;;;8.80;6.40;;;;;;;18.16;69.89;101181.06;6192502;23;20011;-68
2023/07/26 10:03:59;;;;;;;10.10;6.75;;;;;;;17.92;69.96;101183.69;6192130;23;20016;-68
2023/07/26 10:06:29;;;;;;;7.22;6.22;;;;;;;17.80;70.87;101186.75;6216941;23;20390;-69
2023/07/26 10:08:55;;;;;;;9.50;7.10;;;;;;;17.63;72.85;101182.09;6217112;23;20016;-68
2023/07/26 10:11:22;;;;;;;10.07;7.07;;;;;;;17.66;72.81;101169.59;6191715;23;20016;-68
2023/07/26 10:13:49;;;;;;;9.82;7.20;;;;;;;17.71;74.53;101168.56;6214334;23;20012;-69
2023/07/26 10:16:14;;;;;;;9.32;7.82;;;;;;;17.61;74.88;101168.91;6164811;23;20035;-69
2023/07/26 10:18:41;;;;;;;7.90;6.93;;;;;;;17.76;75.48;101170.13;6214204;23;20205;-69
2023/07/26 10:21:08;;;;;;;9.68;6.63;;;;;;;17.81;76.04;101159.34;6215468;23;20091;-68
2023/07/26 10:23:38;;;;;;;9.98;6.90;;;;;;;18.07;75.78;101157.53;6189629;23;20381;-69
2023/07/26 10:26:04;;;;;;;8.00;5.68;;;;;;;18.39;73.95;101164.25;6214657;23;20452;-69
2023/07/26 10:28:33;;;;;;;7.95;4.85;;;;;;;18.59;74.15;101155.50;6189737;23;20008;-69
2023/07/26 10:31:00;;;;;;;8.05;3.70;;;;;;;18.59;66.57;101166.13;6192063;23;20438;-69
2023/07/26 10:33:27;;;;;;;3.28;2.67;;;;;;;18.50;59.59;101164.69;6217390;23;20012;-69
2023/07/26 10:35:53;;;;;;;3.95;2.83;;;;;;;18.30;59.86;101165.50;6191020;23;20000;-69
2023/07/26 10:38:19;;;;;;;4.40;3.40;;;;;;;18.07;62.87;101171.66;6191769;23;20099;-68
2023/07/26 10:40:44;;;;;;;4.50;3.00;;;;;;;17.89;63.43;101175.84;6191455;23;20015;-69
2023/07/26 10:43:19;;;;;;;4.60;3.25;;;;;;;17.71;66.52;101171.22;6216375;23;20008;-68
2023/07/26 10:45:45;;;;;;;4.55;3.30;;;;;;;17.74;67.62;101171.09;6215052;23;20081;-69
2023/07/26 10:48:27;;;;;;;5.68;3.83;;;;;;;17.72;67.25;101172.94;6192152;23;20027;-68
2023/07/26 10:50:56;;;;;;;5.90;3.90;;;;;;;17.64;68.15;101168.78;6216796;23;20036;-68
2023/07/26 10:53:30;;;;;;;6.30;4.03;;;;;;;17.79;70.57;101171.81;6192784;23;20093;-68
2023/07/26 10:56:12;;;;;;;6.57;4.20;;;;;;;17.95;68.26;101165.03;6216950;23;20000;-69
2023/07/26 10:58:54;;;;;;;5.82;4.35;;;;;;;18.24;70.37;101162.19;6216181;23;20069;-68
2023/07/26 11:01:52;;;;;;;7.70;4.80;;;;;;;18.51;68.83;101147.84;6217976;23;20094;-69
2023/07/26 11:04:21;;;;;;;7.78;4.63;;;;;;;18.66;71.03;101156.09;6127367;22;20012;-68
2023/07/26 11:07:05;;;;;;;7.63;5.10;;;;;;;18.87;68.57;101157.06;6193479;23;20019;-69
2023/07/26 11:09:32;;;;;;;6.97;5.00;;;;;;;19.00;65.78;101152.94;6218268;23;20011;-69
2023/07/26 11:12:10;;;;;;;7.35;5.45;;;;;;;19.06;66.94;101151.81;6219322;23;20082;-68
2023/07/26 11:14:36;;;;;;;7.22;5.07;;;;;;;19.21;65.38;101148.53;6218091;23;20318;-69
2023/07/26 11:17:11;;;;;;;5.95;4.82;;;;;;;19.15;64.81;101154.09;6194162;23;20011;-69
2023/07/26 11:19:47;;;;;;;7.50;5.20;;;;;;;19.21;65.67;101158.28;6218280;23;20448;-70
2023/07/26 11:22:13;;;;;;;7.63;4.43;;;;;;;19.14;61.49;101147.06;6219104;23;20033;-70
2023/07/26 11:24:39;;;;;;;5.50;3.78;;;;;;;19.12;63.50;101153.34;6218659;23;20004;-70
2023/07/26 11:27:06;;;;;;;4.90;3.45;;;;;;;18.95;60.69;101154.94;6193351;23;20012;-70
2023/07/26 11:29:34;;;;;;;5.78;3.95;;;;;;;18.93;60.58;101150.63;6217931;23;20011;-70
2023/07/26 11:32:00;;;;;;;7.63;4.30;;;;;;;18.87;62.80;101163.22;6218923;23;20027;-70
2023/07/26 11:34:26;;;;;;;6.88;4.75;;;;;;;18.98;61.39;101159.28;6193885;22;20371;-70
2023/07/26 11:36:54;;;;;;;6.65;4.55;;;;;;;19.08;62.56;101151.75;6194029;23;20402;-70
2023/07/26 11:39:25;;;;;;;7.75;4.50;;;;;;;19.23;64.59;101159.06;6217947;23;20004;-70
2023/07/26 11:41:51;;;;;;;7.38;4.38;;;;;;;19.08;60.75;101155.28;6193608;23;20012;-70
2023/07/26 11:44:24;;;;;;;7.28;4.57;;;;;;;18.93;60.80;101155.94;6192887;22;20027;-70
2023/07/26 11:46:49;;;;;;;7.50;4.70;;;;;;;18.89;61.75;101168.47;6218636;23;20069;-70
2023/07/26 11:49:22;;;;;;;8.30;4.55;;;;;;;18.73;61.57;101167.34;6193399;23;20441;-70
2023/07/26 11:51:51;;;;;;;7.63;4.35;;;;;;;18.53;62.58;101163.69;6194303;23;20103;-70
2023/07/26 11:54:17;;;;;;;6.00;3.80;;;;;;;18.62;62.46;101159.81;6218213;22;20004;-70
2023/07/26 11:56:43;;;;;;;5.40;3.80;;;;;;;18.78;57.92;101162.72;6218610;23;20000;-70
2023/07/26 11:59:10;;;;;;;9.95;3.80;;;;;;;19.07;60.49;101161.53;6217706;23;20055;-70
2023/07/26 12:01:37;;;;;;;5.35;3.40;;;;;;;19.28;59.49;101164.19;6218870;23;20019;-70
2023/07/26 12:04:12;;;;;;;6.20;4.22;;;;;;;19.55;61.91;101162.13;6193525;23;20008;-70
2023/07/26 12:06:44;;;;;;;5.03;3.78;;;;;;;19.65;59.76;101170.56;6218448;23;20434;-70
2023/07/26 12:09:10;;;;;;;8.07;4.30;;;;;;;19.48;56.21;101166.88;6193294;23;20035;-69
2023/07/26 12:11:50;;;;;;;5.80;4.10;;;;;;;19.46;57.99;101174.03;6218731;23;20062;-70
2023/07/26 12:14:16;;;;;;;6.10;3.72;;;;;;;19.34;58.94;101175.44;6194730;22;20012;-70
2023/07/26 12:16:48;;;;;;;4.55;3.55;;;;;;;19.34;58.00;101175.44;6193643;23;20007;-70
2023/07/26 12:19:13;;;;;;;7.22;3.78;;;;;;;19.36;58.18;101173.56;6218182;23;20006;-70
2023/07/26 12:21:39;;;;;;;8.00;4.28;;;;;;;19.52;60.08;101168.47;6192697;23;20023;-70
2023/07/26 12:24:04;;;;;;;4.95;2.95;;;;;;;19.52;56.49;101168.47;6192754;22;20038;-70
2023/07/26 12:26:33;;;;;;;6.57;3.50;;;;;;;19.36;56.09;101170.91;6192501;23;20422;-69
2023/07/26 12:29:01;;;;;;;9.27;3.95;;;;;;;19.24;56.29;101168.78;6216861;23;20410;-68
2023/07/26 12:31:29;;;;;;;6.70;3.70;;;;;;;19.17;56.68;101172.63;6193230;23;20031;-68
2023/07/26 12:34:06;;;;;;;5.80;3.38;;;;;;;19.11;57.29;101172.91;6216900;23;20008;-68
2023/07/26 12:36:37;;;;;;;4.53;3.47;;;;;;;19.13;56.97;101176.34;6218235;23;19996;-69
2023/07/26 12:39:08;;;;;;;7.85;3.70;;;;;;;19.16;58.04;101176.22;6217051;23;20430;-69
2023/07/26 12:41:38;;;;;;;4.45;3.35;;;;;;;19.57;58.97;101165.59;6218035;23;20078;-68